Time;durP1;ratioP1;P1;durP2;ratioP2;P2;SDS_P1;SDS_P2;PMS_P1;PMS_P2;Temp;Humidity;BMP_temperature;BMP_pressure;BME280_temperature;BME280_humidity;BME280_pressure;Samples;Min_cycle;Max_cycle;Signal;HPM_P1;HPM_P2
2021/06/18 00:01:06;;;;;;;6.40;5.68;;;;;;;14.41;76.91;93679.69;5004395;28;20022;-39
2021/06/18 00:03:31;;;;;;;7.35;6.55;;;;;;;14.32;77.04;93681.06;4992290;28;20038;-40
2021/06/18 00:05:57;;;;;;;7.72;6.97;;;;;;;14.23;77.24;93675.38;4992216;28;20046;-40
2021/06/18 00:08:22;;;;;;;7.03;5.93;;;;;;;14.20;76.57;93665.41;4991962;28;20514;-40
2021/06/18 00:10:48;;;;;;;6.40;5.40;;;;;;;14.21;76.23;93677.97;4991811;28;20034;-39
2021/06/18 00:13:13;;;;;;;8.80;5.90;;;;;;;14.25;76.08;93681.13;4999668;28;20505;-40
2021/06/18 00:15:39;;;;;;;11.05;7.85;;;;;;;14.41;75.12;93682.47;5009760;28;20018;-40
2021/06/18 00:18:04;;;;;;;24.50;7.05;;;;;;;14.28;75.67;93677.94;5010926;28;20036;-39
2021/06/18 00:20:30;;;;;;;15.23;6.65;;;;;;;14.39;75.88;93679.53;5009567;28;20021;-39
2021/06/18 00:22:55;;;;;;;16.33;6.13;;;;;;;14.41;75.87;93676.94;5004419;28;20030;-38
2021/06/18 00:25:21;;;;;;;16.27;6.63;;;;;;;14.19;77.01;93664.66;4990960;28;20529;-39
2021/06/18 00:27:46;;;;;;;11.90;6.63;;;;;;;14.38;76.79;93683.59;4991021;28;20052;-38
2021/06/18 00:30:12;;;;;;;23.65;7.03;;;;;;;14.14;76.71;93651.75;4991043;28;20497;-39
2021/06/18 00:32:38;;;;;;;9.60;7.22;;;;;;;14.20;78.03;93670.97;4990727;28;20429;-39
2021/06/18 00:35:04;;;;;;;11.10;7.82;;;;;;;14.23;78.43;93672.59;4990697;28;20026;-39
2021/06/18 00:37:32;;;;;;;12.20;6.93;;;;;;;14.18;77.98;93677.09;4990819;28;20491;-39
2021/06/18 00:39:58;;;;;;;44.55;8.30;;;;;;;13.95;77.52;93634.88;5009931;28;20526;-39
2021/06/18 00:42:23;;;;;;;46.13;8.88;;;;;;;14.11;77.63;93661.22;5010209;28;20014;-39
2021/06/18 00:44:48;;;;;;;34.50;8.10;;;;;;;14.06;78.10;93669.75;5010337;28;20025;-39
2021/06/18 00:47:18;;;;;;;33.35;7.40;;;;;;;14.14;77.49;93667.69;5009864;28;20239;-38
2021/06/18 00:49:43;;;;;;;45.13;7.47;;;;;;;14.13;77.59;93668.97;5010289;28;20184;-38
2021/06/18 00:52:09;;;;;;;19.13;6.88;;;;;;;14.03;77.74;93673.69;5037279;28;20501;-39
2021/06/18 00:54:36;;;;;;;14.93;7.18;;;;;;;14.05;77.38;93673.84;5029706;28;20094;-38
2021/06/18 00:57:02;;;;;;;12.30;5.57;;;;;;;13.95;77.78;93675.75;5025371;28;20025;-38
2021/06/18 00:59:28;;;;;;;8.63;6.57;;;;;;;13.78;77.50;93651.44;5010897;28;20112;-38
2021/06/18 01:01:54;;;;;;;7.05;6.40;;;;;;;13.87;77.79;93677.84;5009188;28;20018;-39
2021/06/18 01:04:21;;;;;;;20.52;7.45;;;;;;;13.85;78.39;93681.19;5010303;28;20104;-39
2021/06/18 01:06:52;;;;;;;12.07;7.20;;;;;;;13.87;77.99;93663.97;5025877;28;20432;-39
2021/06/18 01:09:17;;;;;;;12.88;8.13;;;;;;;13.73;78.08;93646.13;5025477;28;20049;-38
2021/06/18 01:12:01;;;;;;;10.95;6.90;;;;;;;13.73;79.14;93679.44;5025452;28;20057;-39
2021/06/18 01:15:00;;;;;;;13.10;6.10;;;;;;;13.86;78.26;93679.16;5025768;28;20056;-39
2021/06/18 01:17:45;;;;;;;39.72;6.78;;;;;;;13.85;78.32;93677.69;5009301;28;20029;-40
2021/06/18 01:20:31;;;;;;;33.28;7.32;;;;;;;13.77;78.60;93679.78;4989576;28;20129;-40
2021/06/18 01:22:58;;;;;;;12.52;6.80;;;;;;;13.79;79.01;93677.16;4995398;28;20021;-40
2021/06/18 01:25:39;;;;;;;29.17;6.53;;;;;;;13.77;79.40;93674.97;5008985;28;20076;-40
2021/06/18 01:28:30;;;;;;;25.58;6.10;;;;;;;13.62;79.24;93681.31;5009698;28;20091;-40
2021/06/18 01:30:57;;;;;;;20.80;6.20;;;;;;;13.63;79.42;93671.72;5005007;28;20046;-39
2021/06/18 01:33:23;;;;;;;8.50;6.30;;;;;;;13.56;77.66;93641.97;5009430;28;20032;-39
2021/06/18 01:35:51;;;;;;;10.98;5.60;;;;;;;13.62;78.55;93673.00;5024844;28;20018;-40
2021/06/18 01:38:17;;;;;;;9.07;6.38;;;;;;;13.34;79.46;93662.22;5008781;28;20030;-40
2021/06/18 01:40:44;;;;;;;14.98;8.55;;;;;;;13.42;80.05;93678.84;5024418;28;20049;-39
2021/06/18 01:43:12;;;;;;;6.72;5.28;;;;;;;13.38;79.29;93672.97;5008794;28;20034;-39
2021/06/18 01:45:40;;;;;;;8.00;5.47;;;;;;;13.45;78.55;93672.16;5009996;28;20022;-38
2021/06/18 01:48:06;;;;;;;6.18;5.60;;;;;;;13.43;78.63;93672.72;5008199;28;20563;-38
2021/06/18 01:50:32;;;;;;;6.68;5.50;;;;;;;13.38;78.54;93679.22;5007710;28;20030;-38
2021/06/18 01:53:19;;;;;;;8.85;6.28;;;;;;;13.33;77.75;93676.66;5025229;28;20029;-38
2021/06/18 01:55:49;;;;;;;7.85;6.07;;;;;;;13.33;77.82;93676.66;5007960;28;20037;-39
2021/06/18 01:58:16;;;;;;;9.77;6.15;;;;;;;13.37;77.40;93657.59;5009964;28;20033;-40
2021/06/18 02:00:46;;;;;;;6.22;5.57;;;;;;;13.41;77.95;93678.09;5009740;28;20026;-39
2021/06/18 02:03:15;;;;;;;10.25;5.63;;;;;;;13.22;78.23;93672.28;5010188;28;20091;-39
2021/06/18 02:05:41;;;;;;;7.72;5.60;;;;;;;13.27;78.33;93673.38;5008643;28;20029;-40
2021/06/18 02:08:07;;;;;;;7.32;5.05;;;;;;;13.42;78.22;93676.81;5008623;28;20034;-39
2021/06/18 02:10:35;;;;;;;11.45;6.53;;;;;;;13.48;77.73;93677.34;5008345;28;20052;-40
2021/06/18 02:13:02;;;;;;;20.08;9.93;;;;;;;13.30;78.26;93667.44;5025065;28;20401;-40
2021/06/18 02:15:29;;;;;;;29.95;11.00;;;;;;;13.39;78.16;93666.84;5008710;28;20026;-40
2021/06/18 02:17:55;;;;;;;25.45;11.85;;;;;;;13.31;79.68;93684.81;5008835;28;20058;-39
2021/06/18 02:20:20;;;;;;;12.40;10.25;;;;;;;13.45;78.86;93675.69;5008813;28;20112;-40
2021/06/18 02:22:46;;;;;;;17.45;9.43;;;;;;;13.53;78.26;93684.72;5008118;28;20018;-39
2021/06/18 02:25:13;;;;;;;15.07;9.48;;;;;;;13.50;78.14;93680.28;5008403;28;20026;-39
2021/06/18 02:27:40;;;;;;;16.48;8.55;;;;;;;13.52;78.94;93677.69;5009631;28;20022;-39
2021/06/18 02:30:07;;;;;;;14.98;8.80;;;;;;;13.43;79.00;93688.63;5007691;28;20034;-40
2021/06/18 02:32:33;;;;;;;19.58;10.75;;;;;;;13.47;78.92;93689.00;5008986;28;20588;-40
2021/06/18 02:34:59;;;;;;;22.00;13.52;;;;;;;13.56;77.95;93680.81;5008121;28;20108;-40
2021/06/18 02:37:25;;;;;;;13.55;11.65;;;;;;;13.47;77.99;93681.41;5008378;28;20545;-39
2021/06/18 02:39:50;;;;;;;23.02;13.05;;;;;;;13.34;78.57;93689.25;5008471;28;20050;-40
2021/06/18 02:42:16;;;;;;;14.35;12.80;;;;;;;13.20;78.57;93663.78;5009729;28;20025;-39
2021/06/18 02:44:41;;;;;;;22.10;10.93;;;;;;;13.19;77.47;93653.97;5009727;28;20497;-40
2021/06/18 02:47:16;;;;;;;17.52;11.68;;;;;;;13.30;78.20;93678.53;5009312;28;20026;-39
2021/06/18 02:49:45;;;;;;;18.38;11.57;;;;;;;13.06;78.39;93656.97;5009312;28;20081;-39
2021/06/18 02:52:18;;;;;;;20.25;14.60;;;;;;;13.08;78.85;93681.41;5036425;28;20033;-39
2021/06/18 02:54:57;;;;;;;29.17;13.52;;;;;;;13.15;78.65;93677.84;5029677;28;20033;-39
2021/06/18 02:57:26;;;;;;;22.88;11.68;;;;;;;13.18;78.05;93665.63;5031499;28;20033;-41
2021/06/18 03:00:05;;;;;;;12.32;8.40;;;;;;;13.34;77.90;93678.16;5031245;28;20128;-39
2021/06/18 03:02:36;;;;;;;5.85;5.35;;;;;;;13.39;77.57;93669.59;5018531;28;20026;-39
2021/06/18 03:05:04;;;;;;;6.05;5.65;;;;;;;13.36;77.96;93667.94;5013014;28;20041;-39
2021/06/18 03:07:32;;;;;;;17.45;6.43;;;;;;;13.25;78.34;93670.41;5012792;28;20030;-40
2021/06/18 03:10:00;;;;;;;33.00;6.63;;;;;;;13.00;78.88;93650.16;5012559;28;20566;-39
2021/06/18 03:12:27;;;;;;;12.30;6.13;;;;;;;13.18;78.91;93665.63;5011087;28;20796;-39
2021/06/18 03:15:01;;;;;;;27.55;6.85;;;;;;;13.14;79.67;93671.56;5012791;28;20045;-39
2021/06/18 03:17:27;;;;;;;31.42;6.97;;;;;;;13.21;80.07;93670.78;5011295;28;20056;-40
2021/06/18 03:19:55;;;;;;;39.08;6.72;;;;;;;13.19;79.18;93644.94;5012247;28;20034;-40
2021/06/18 03:22:25;;;;;;;27.90;6.93;;;;;;;13.40;78.90;93673.88;5027230;28;20026;-41
2021/06/18 03:24:52;;;;;;;16.20;6.40;;;;;;;13.43;79.39;93672.72;5012518;28;20040;-41
2021/06/18 03:27:20;;;;;;;29.15;6.07;;;;;;;13.38;79.65;93678.50;5012166;28;20513;-40
2021/06/18 03:29:46;;;;;;;33.97;6.65;;;;;;;13.36;79.75;93667.22;5027441;28;20097;-40
2021/06/18 03:32:12;;;;;;;44.22;7.15;;;;;;;13.11;79.40;93644.97;5012012;28;20026;-40
2021/06/18 03:34:38;;;;;;;48.47;7.78;;;;;;;13.29;79.42;93665.97;5010964;28;20033;-40
2021/06/18 03:37:04;;;;;;;24.83;6.40;;;;;;;13.30;79.56;93672.22;5020515;28;20105;-40
2021/06/18 03:39:30;;;;;;;17.35;5.72;;;;;;;13.50;78.53;93671.97;4992365;28;20529;-40
2021/06/18 03:41:56;;;;;;;22.75;6.75;;;;;;;13.32;79.45;93675.22;5007764;28;20100;-40
2021/06/18 03:44:22;;;;;;;29.73;6.68;;;;;;;13.38;80.06;93661.84;5007695;28;20477;-41
2021/06/18 03:46:48;;;;;;;8.30;5.47;;;;;;;13.45;80.39;93675.69;5006628;28;20068;-40
2021/06/18 03:49:14;;;;;;;11.93;6.25;;;;;;;13.55;78.94;93662.69;5030350;28;20029;-40
2021/06/18 03:51:40;;;;;;;28.75;26.17;;;;;;;13.53;79.69;93656.97;5038692;28;20489;-40
2021/06/18 03:54:06;;;;;;;82.18;74.15;;;;;;;13.51;79.77;93665.09;5010866;28;20032;-40
2021/06/18 03:56:32;;;;;;;16.50;15.07;;;;;;;13.43;78.73;93653.31;5026366;28;20539;-41
2021/06/18 03:58:58;;;;;;;11.95;10.70;;;;;;;13.41;78.05;93644.81;5030462;28;20032;-40
2021/06/18 04:01:27;;;;;;;4.45;4.05;;;;;;;13.67;77.20;93671.31;5031469;28;20041;-40
2021/06/18 04:03:53;;;;;;;26.27;23.85;;;;;;;13.42;78.92;93678.84;5046895;28;20033;-41
2021/06/18 04:06:20;;;;;;;6.63;6.03;;;;;;;13.23;79.21;93659.88;5029053;28;20065;-41
2021/06/18 04:08:46;;;;;;;5.78;5.22;;;;;;;13.46;79.37;93676.41;5046636;28;20521;-42
2021/06/18 04:11:13;;;;;;;6.93;5.93;;;;;;;13.54;79.28;93677.13;5020154;28;20517;-41
2021/06/18 04:13:40;;;;;;;19.00;17.92;;;;;;;13.67;79.16;93672.06;5010482;28;20525;-40
2021/06/18 04:16:07;;;;;;;6.32;5.72;;;;;;;13.84;78.75;93690.09;5009581;28;20432;-40
2021/06/18 04:18:33;;;;;;;26.27;24.77;;;;;;;13.84;78.49;93699.13;5010476;28;20026;-40
2021/06/18 04:21:03;;;;;;;18.00;16.63;;;;;;;13.93;78.83;93697.78;5010945;28;20074;-40
2021/06/18 04:23:29;;;;;;;24.15;22.10;;;;;;;14.06;78.57;93694.75;5010453;28;20053;-39
2021/06/18 04:25:58;;;;;;;8.38;7.68;;;;;;;14.10;78.88;93695.09;5010965;28;20547;-40
2021/06/18 04:28:24;;;;;;;9.10;6.18;;;;;;;14.12;78.79;93686.94;5010996;28;20056;-40
2021/06/18 04:30:50;;;;;;;9.48;6.25;;;;;;;14.17;78.53;93692.25;5010990;28;20040;-40
2021/06/18 04:33:15;;;;;;;20.65;6.88;;;;;;;14.21;78.78;93689.09;5009849;28;20026;-40
2021/06/18 04:35:41;;;;;;;21.13;13.95;;;;;;;14.09;79.77;93694.38;5010933;28;20025;-41
2021/06/18 04:38:06;;;;;;;12.48;9.30;;;;;;;14.22;79.99;93693.34;5011334;28;20516;-41
2021/06/18 04:40:32;;;;;;;13.63;12.32;;;;;;;13.99;79.87;93660.19;5009625;28;20528;-42
2021/06/18 04:42:59;;;;;;;38.83;36.05;;;;;;;14.34;79.09;93702.72;5010898;28;20041;-40
2021/06/18 04:45:25;;;;;;;45.55;41.80;;;;;;;14.30;78.68;93685.72;5011147;28;20026;-41
2021/06/18 04:47:50;;;;;;;16.48;15.30;;;;;;;14.36;79.05;93703.63;5011008;28;20033;-40
2021/06/18 04:50:16;;;;;;;18.13;7.82;;;;;;;14.42;79.48;93700.63;5010490;28;20429;-41
2021/06/18 04:52:42;;;;;;;19.33;14.07;;;;;;;14.59;78.86;93702.72;5027097;28;20025;-43
2021/06/18 04:55:11;;;;;;;11.55;10.07;;;;;;;14.58;79.15;93693.63;5030344;28;20063;-39
2021/06/18 04:57:36;;;;;;;12.77;6.95;;;;;;;14.72;79.02;93702.41;5029979;28;20520;-39
2021/06/18 05:00:03;;;;;;;11.98;10.90;;;;;;;14.65;78.05;93687.28;5030492;28;20025;-40
2021/06/18 05:02:29;;;;;;;17.00;15.45;;;;;;;14.91;78.50;93708.16;5030506;28;20040;-39
2021/06/18 05:04:54;;;;;;;11.55;10.38;;;;;;;14.75;78.38;93690.88;5030482;28;20048;-40
2021/06/18 05:07:20;;;;;;;40.88;36.78;;;;;;;14.97;77.77;93712.16;5030348;28;20037;-39
2021/06/18 05:09:45;;;;;;;22.25;19.50;;;;;;;14.92;78.01;93704.06;5029870;28;20509;-39
2021/06/18 05:12:11;;;;;;;14.82;10.27;;;;;;;15.07;78.15;93701.13;5030063;28;20064;-38
2021/06/18 05:14:36;;;;;;;12.00;10.70;;;;;;;14.71;78.24;93645.34;5011127;28;20030;-40
2021/06/18 05:17:02;;;;;;;28.67;26.33;;;;;;;15.19;78.10;93708.41;5010045;28;20033;-39
2021/06/18 05:19:27;;;;;;;10.98;9.15;;;;;;;15.20;79.34;93717.50;5009912;28;20113;-39
2021/06/18 05:21:53;;;;;;;12.98;10.90;;;;;;;15.34;78.27;93707.50;5010392;28;20037;-39
2021/06/18 05:24:18;;;;;;;14.25;13.07;;;;;;;15.39;79.07;93705.78;5010021;28;20030;-39
2021/06/18 05:26:44;;;;;;;8.77;6.97;;;;;;;15.39;79.23;93714.13;5010342;28;20026;-39
2021/06/18 05:29:10;;;;;;;7.35;6.57;;;;;;;15.28;79.62;93709.06;5010001;28;20492;-39
2021/06/18 05:31:35;;;;;;;6.88;6.28;;;;;;;15.55;79.18;93718.25;5009764;28;20041;-39
2021/06/18 05:34:01;;;;;;;20.73;18.95;;;;;;;15.64;79.50;93709.19;5007509;28;20029;-39
2021/06/18 05:36:26;;;;;;;15.88;14.50;;;;;;;15.78;79.16;93716.66;5008645;28;20037;-38
2021/06/18 05:38:52;;;;;;;10.07;9.20;;;;;;;15.92;78.92;93706.59;4998697;28;20058;-39
2021/06/18 05:41:17;;;;;;;10.65;9.48;;;;;;;15.93;78.23;93691.38;4987971;28;20100;-39
2021/06/18 05:43:43;;;;;;;10.02;9.13;;;;;;;16.07;78.30;93697.31;4990407;28;20034;-39
2021/06/18 05:46:08;;;;;;;10.27;9.38;;;;;;;16.25;78.01;93709.13;5009000;28;20430;-39
2021/06/18 05:48:34;;;;;;;11.30;10.30;;;;;;;16.40;77.64;93708.88;5008876;28;20402;-39
2021/06/18 05:50:59;;;;;;;12.02;10.73;;;;;;;16.30;78.55;93689.34;5011115;28;20081;-40
2021/06/18 05:53:25;;;;;;;10.93;9.93;;;;;;;16.45;79.14;93680.75;5028696;28;20033;-40
2021/06/18 05:55:50;;;;;;;14.88;13.77;;;;;;;16.55;78.88;93698.25;5028215;28;20038;-39
2021/06/18 05:58:15;;;;;;;10.68;9.88;;;;;;;16.75;79.02;93712.25;5028226;28;20026;-40
2021/06/18 06:00:42;;;;;;;33.78;31.42;;;;;;;16.68;76.68;93680.41;5017543;28;20032;-39
2021/06/18 06:03:11;;;;;;;10.13;9.13;;;;;;;16.76;77.17;93691.44;4990230;28;20041;-40
2021/06/18 06:05:37;;;;;;;11.18;9.85;;;;;;;16.95;77.73;93713.78;5008797;28;20033;-38
2021/06/18 06:08:03;;;;;;;10.45;8.90;;;;;;;16.95;77.63;93705.41;5008422;28;20065;-39
2021/06/18 06:10:28;;;;;;;9.30;8.40;;;;;;;17.07;77.16;93706.28;5009061;28;20056;-39
2021/06/18 06:12:54;;;;;;;9.20;8.35;;;;;;;17.12;76.59;93697.66;5008813;28;20033;-39
2021/06/18 06:15:19;;;;;;;34.17;31.88;;;;;;;17.18;76.85;93700.88;5008465;28;20632;-40
2021/06/18 06:17:45;;;;;;;9.15;8.25;;;;;;;17.19;76.32;93704.41;5008476;28;20033;-40
2021/06/18 06:20:11;;;;;;;66.30;61.45;;;;;;;17.23;76.18;93696.34;5008675;28;20025;-40
2021/06/18 06:22:37;;;;;;;10.80;9.80;;;;;;;17.28;76.67;93695.31;5008232;28;20045;-39
2021/06/18 06:25:03;;;;;;;11.10;9.68;;;;;;;17.25;76.95;93691.66;5008315;28;20072;-39
2021/06/18 06:27:29;;;;;;;11.20;10.20;;;;;;;17.29;77.08;93703.09;5008160;28;20041;-39
2021/06/18 06:29:55;;;;;;;11.57;10.48;;;;;;;17.28;77.41;93696.03;5010707;28;20038;-41
2021/06/18 06:32:20;;;;;;;9.10;8.20;;;;;;;17.30;75.32;93682.22;5012081;28;20033;-40
2021/06/18 06:34:47;;;;;;;9.90;8.90;;;;;;;17.09;74.93;93643.03;5005624;28;20085;-41
2021/06/18 06:37:12;;;;;;;9.15;8.30;;;;;;;17.50;74.60;93685.03;4992638;28;20118;-40
2021/06/18 06:39:38;;;;;;;9.85;8.90;;;;;;;17.54;74.34;93688.88;4992447;28;20050;-41
2021/06/18 06:42:05;;;;;;;10.35;9.38;;;;;;;17.37;75.32;93661.06;4992503;28;20141;-40
2021/06/18 06:44:30;;;;;;;19.05;17.55;;;;;;;17.43;76.18;93650.38;4992849;28;20121;-40
2021/06/18 06:46:56;;;;;;;16.38;14.88;;;;;;;17.65;75.41;93673.59;4992460;28;20096;-40
2021/06/18 06:49:21;;;;;;;11.38;10.27;;;;;;;17.65;76.72;93674.31;4992509;28;20030;-40
2021/06/18 06:51:47;;;;;;;12.38;10.85;;;;;;;17.58;77.22;93663.31;5009764;28;20025;-40
2021/06/18 06:54:12;;;;;;;12.80;11.48;;;;;;;17.54;76.38;93652.59;5031671;28;20033;-41
2021/06/18 06:56:38;;;;;;;10.55;9.55;;;;;;;17.69;75.97;93652.28;5014995;28;20030;-41
2021/06/18 06:59:03;;;;;;;17.42;16.02;;;;;;;17.73;75.58;93646.22;5011916;28;20512;-41
2021/06/18 07:01:29;;;;;;;11.10;9.95;;;;;;;17.75;75.24;93641.53;5010953;28;20080;-40
2021/06/18 07:03:55;;;;;;;10.63;9.63;;;;;;;17.83;75.46;93667.22;5011603;28;20042;-40
2021/06/18 07:06:21;;;;;;;9.65;8.75;;;;;;;17.74;75.64;93670.75;5011173;28;20604;-41
2021/06/18 07:08:46;;;;;;;10.70;9.60;;;;;;;18.05;75.64;93662.47;5011443;28;20026;-40
2021/06/18 07:11:12;;;;;;;12.57;11.27;;;;;;;18.14;75.48;93662.44;5011188;28;20018;-40
2021/06/18 07:13:37;;;;;;;21.00;19.40;;;;;;;18.33;74.37;93666.47;5011498;28;20026;-39
2021/06/18 07:16:03;;;;;;;11.02;9.93;;;;;;;18.54;73.59;93670.09;5011454;28;20021;-39
2021/06/18 07:18:28;;;;;;;21.67;20.00;;;;;;;18.64;71.42;93640.03;5011359;28;20489;-40
2021/06/18 07:20:54;;;;;;;12.25;9.90;;;;;;;18.89;71.12;93667.53;5011218;28;20026;-39
2021/06/18 07:23:19;;;;;;;10.80;9.82;;;;;;;18.66;71.42;93653.41;5010886;28;20025;-38
2021/06/18 07:25:46;;;;;;;11.23;10.13;;;;;;;18.82;71.59;93665.66;5010559;28;20033;-39
2021/06/18 07:28:12;;;;;;;13.07;9.55;;;;;;;18.91;71.25;93656.47;5010057;28;20109;-38
2021/06/18 07:30:38;;;;;;;10.10;9.20;;;;;;;18.97;70.46;93664.56;5007430;28;20801;-38
2021/06/18 07:33:05;;;;;;;10.45;9.55;;;;;;;19.05;71.49;93653.91;4991047;28;20045;-38
2021/06/18 07:35:30;;;;;;;11.40;10.30;;;;;;;18.97;72.11;93654.09;4991515;28;20026;-38
2021/06/18 07:37:57;;;;;;;12.73;11.50;;;;;;;18.95;72.04;93639.97;4991273;28;20030;-38
2021/06/18 07:40:22;;;;;;;13.00;11.57;;;;;;;19.07;71.18;93634.44;4990210;28;20445;-38
2021/06/18 07:42:49;;;;;;;10.45;9.40;;;;;;;19.23;70.00;93644.63;4991195;28;20111;-38
2021/06/18 07:45:15;;;;;;;10.88;9.88;;;;;;;19.32;70.88;93652.22;4991354;28;20113;-39
2021/06/18 07:47:40;;;;;;;10.23;9.30;;;;;;;19.12;70.74;93613.78;4991109;28;20101;-38
2021/06/18 07:50:15;;;;;;;9.55;8.75;;;;;;;19.56;70.05;93651.00;4989996;28;20049;-39
2021/06/18 07:52:41;;;;;;;9.82;8.77;;;;;;;19.87;68.58;93644.50;5006050;28;20030;-38
2021/06/18 07:55:09;;;;;;;9.95;8.93;;;;;;;19.85;68.37;93633.91;5011638;28;20030;-38
2021/06/18 07:57:36;;;;;;;9.07;7.80;;;;;;;19.93;67.74;93611.25;5010204;28;20033;-39
2021/06/18 08:00:07;;;;;;;7.85;7.22;;;;;;;20.97;66.95;93642.13;5010099;28;20386;-38
2021/06/18 08:02:32;;;;;;;7.32;6.72;;;;;;;21.92;63.52;93631.47;5009314;28;20508;-38
2021/06/18 08:04:58;;;;;;;6.70;6.10;;;;;;;22.88;59.51;93615.47;5009962;28;20030;-38
2021/06/18 08:07:23;;;;;;;7.47;6.32;;;;;;;24.17;55.66;93622.56;5008458;28;20502;-41
2021/06/18 08:09:50;;;;;;;4.90;4.35;;;;;;;24.89;52.25;93624.41;5010092;28;20034;-41
2021/06/18 08:12:15;;;;;;;10.95;4.82;;;;;;;25.15;49.48;93608.59;5009769;28;20030;-42
2021/06/18 08:14:41;;;;;;;6.90;5.15;;;;;;;25.39;50.12;93607.53;5009541;28;20861;-39
2021/06/18 08:17:06;;;;;;;5.43;4.93;;;;;;;25.40;50.82;93617.44;5009625;28;20030;-39
2021/06/18 08:19:32;;;;;;;5.95;5.35;;;;;;;25.24;51.87;93608.31;5010353;28;20029;-40
2021/06/18 08:21:57;;;;;;;6.93;6.07;;;;;;;24.84;52.54;93618.59;5010087;28;20498;-39
2021/06/18 08:24:23;;;;;;;8.13;5.25;;;;;;;24.42;53.53;93624.41;5009526;28;20032;-39
2021/06/18 08:26:50;;;;;;;7.13;5.07;;;;;;;24.10;52.28;93609.56;5007119;28;20022;-40
2021/06/18 08:29:15;;;;;;;6.78;4.40;;;;;;;23.85;53.73;93616.13;4990548;28;20038;-40
2021/06/18 08:31:42;;;;;;;6.57;3.85;;;;;;;23.62;53.49;93615.69;4990406;28;20048;-39
2021/06/18 08:34:09;;;;;;;5.47;4.68;;;;;;;23.24;54.28;93614.50;5004852;28;20129;-40
2021/06/18 08:36:34;;;;;;;4.45;4.05;;;;;;;22.99;55.33;93615.38;4993837;28;20034;-39
2021/06/18 08:39:00;;;;;;;9.10;5.25;;;;;;;22.73;57.50;93607.66;5006740;28;20112;-40
2021/06/18 08:41:25;;;;;;;4.90;4.50;;;;;;;22.30;56.71;93599.06;5009225;28;20520;-39
2021/06/18 08:43:51;;;;;;;4.65;4.25;;;;;;;22.11;57.87;93613.50;5007578;28;20033;-39
2021/06/18 08:46:16;;;;;;;3.85;3.55;;;;;;;21.82;56.72;93619.63;5008780;28;20030;-38
2021/06/18 08:48:42;;;;;;;5.85;5.35;;;;;;;21.67;57.97;93620.94;4990038;28;20138;-39
2021/06/18 08:51:07;;;;;;;4.82;4.47;;;;;;;21.45;58.47;93616.16;4996380;28;20018;-39
2021/06/18 08:53:35;;;;;;;5.38;4.00;;;;;;;21.35;57.30;93618.41;5029204;28;20048;-40
2021/06/18 08:56:01;;;;;;;4.53;4.22;;;;;;;21.26;58.29;93617.19;5027072;28;20029;-39
2021/06/18 08:58:26;;;;;;;7.25;4.40;;;;;;;20.64;58.52;93574.97;5028921;28;20471;-40
2021/06/18 09:00:52;;;;;;;9.18;5.20;;;;;;;20.79;60.12;93618.63;5029442;28;20029;-40
2021/06/18 09:03:38;;;;;;;6.03;5.53;;;;;;;20.62;61.52;93611.31;5028811;28;20034;-39
2021/06/18 09:06:32;;;;;;;9.15;4.32;;;;;;;20.45;60.26;93613.75;5029312;28;20055;-39
2021/06/18 09:09:17;;;;;;;5.63;5.13;;;;;;;20.43;60.12;93617.19;5028940;28;20029;-40
2021/06/18 09:11:56;;;;;;;4.93;4.63;;;;;;;20.35;61.48;93616.69;5028771;28;20041;-39
2021/06/18 09:14:31;;;;;;;5.95;5.45;;;;;;;20.33;61.75;93611.72;5011966;28;20025;-39
2021/06/18 09:17:19;;;;;;;5.85;5.35;;;;;;;20.41;62.17;93605.84;5009221;28;20589;-40
2021/06/18 09:19:49;;;;;;;5.67;5.17;;;;;;;20.30;61.94;93596.09;5009567;28;20026;-39
2021/06/18 09:22:15;;;;;;;8.43;5.63;;;;;;;20.38;63.20;93605.00;5007954;28;20022;-39
2021/06/18 09:24:44;;;;;;;6.20;5.60;;;;;;;20.35;62.30;93594.28;5008763;28;20034;-40
2021/06/18 09:27:10;;;;;;;6.40;5.90;;;;;;;20.42;62.10;93598.16;5009025;28;20155;-40
2021/06/18 09:29:36;;;;;;;6.43;5.65;;;;;;;20.45;62.88;93588.53;5007507;28;20053;-40
2021/06/18 09:32:10;;;;;;;5.45;4.95;;;;;;;20.53;63.22;93594.63;5009026;28;20065;-40
2021/06/18 09:34:59;;;;;;;6.97;5.40;;;;;;;20.57;63.21;93592.81;5008838;28;20053;-39
2021/06/18 09:37:30;;;;;;;5.75;5.22;;;;;;;20.55;62.17;93591.94;5008413;28;20053;-40
2021/06/18 09:39:56;;;;;;;6.70;6.18;;;;;;;20.55;61.71;93592.69;5008040;28;20069;-40
2021/06/18 09:42:24;;;;;;;5.80;5.40;;;;;;;20.55;62.41;93589.88;5007885;28;20736;-39
2021/06/18 09:45:25;;;;;;;6.15;5.55;;;;;;;20.42;61.59;93591.19;5008404;28;20038;-39
2021/06/18 09:47:51;;;;;;;25.23;23.55;;;;;;;20.46;61.67;93601.22;5007914;28;20077;-39
2021/06/18 09:50:28;;;;;;;5.53;5.10;;;;;;;20.51;63.02;93594.50;5008538;28;20065;-38
2021/06/18 09:53:29;;;;;;;6.28;5.70;;;;;;;20.45;62.73;93580.84;5026627;28;20475;-39
2021/06/18 09:56:04;;;;;;;5.63;5.13;;;;;;;20.60;61.82;93591.56;5027842;28;20033;-38
2021/06/18 09:58:37;;;;;;;5.05;4.63;;;;;;;20.65;61.76;93593.28;5027261;28;20457;-38
2021/06/18 10:01:34;;;;;;;11.82;4.82;;;;;;;20.51;62.36;93567.19;5028024;28;20102;-39
2021/06/18 10:04:13;;;;;;;4.03;3.72;;;;;;;20.59;60.97;93578.88;5018934;28;20033;-40
2021/06/18 10:06:41;;;;;;;7.93;5.03;;;;;;;20.80;62.13;93587.16;5028101;28;20084;-38
2021/06/18 10:09:09;;;;;;;9.70;4.68;;;;;;;20.94;62.30;93579.53;5015920;28;20030;-39
2021/06/18 10:11:36;;;;;;;5.40;4.93;;;;;;;20.95;61.78;93581.00;5008226;28;20120;-39
2021/06/18 10:14:01;;;;;;;5.13;4.03;;;;;;;21.12;60.37;93588.31;5007936;28;21042;-39
2021/06/18 10:16:29;;;;;;;4.90;4.50;;;;;;;21.25;61.06;93592.53;5007487;28;20028;-39
2021/06/18 10:18:56;;;;;;;4.65;3.60;;;;;;;21.29;58.74;93587.88;5008062;28;20029;-40
2021/06/18 10:21:23;;;;;;;5.93;3.33;;;;;;;21.32;58.42;93577.47;5022997;28;20022;-38
2021/06/18 10:23:49;;;;;;;3.75;3.45;;;;;;;21.41;58.36;93582.22;5006397;28;20061;-39
2021/06/18 10:26:15;;;;;;;3.70;3.40;;;;;;;21.34;59.09;93577.59;5021126;28;20286;-38
2021/06/18 10:28:52;;;;;;;5.80;5.20;;;;;;;21.50;59.10;93586.94;5015541;28;20417;-40
2021/06/18 10:31:25;;;;;;;5.00;3.55;;;;;;;21.59;58.28;93580.44;5000498;28;20034;-38
2021/06/18 10:34:06;;;;;;;4.82;4.43;;;;;;;21.58;57.93;93579.69;5006981;28;20018;-39
2021/06/18 10:36:32;;;;;;;5.15;4.65;;;;;;;21.66;58.25;93579.38;5005823;28;20022;-38
2021/06/18 10:39:15;;;;;;;5.30;4.15;;;;;;;21.77;56.15;93570.91;5005920;28;20065;-39
2021/06/18 10:42:00;;;;;;;5.97;3.47;;;;;;;21.79;54.91;93564.66;5002241;28;20076;-40
2021/06/18 10:44:37;;;;;;;3.78;3.47;;;;;;;21.82;56.73;93563.44;5002987;28;20108;-37
2021/06/18 10:47:23;;;;;;;5.03;4.03;;;;;;;22.04;55.47;93564.66;5004863;28;20036;-37
2021/06/18 10:49:50;;;;;;;4.55;4.15;;;;;;;22.23;55.01;93555.81;5002995;28;20045;-39
2021/06/18 10:52:18;;;;;;;3.80;3.30;;;;;;;22.46;54.08;93566.13;5019523;28;20033;-38
2021/06/18 10:55:02;;;;;;;3.55;3.30;;;;;;;22.46;52.75;93557.69;5023260;28;20145;-38
2021/06/18 10:57:29;;;;;;;5.30;3.10;;;;;;;22.33;53.30;93550.72;5007985;28;20543;-37
2021/06/18 11:00:20;;;;;;;3.70;3.33;;;;;;;22.29;54.05;93563.84;5007950;28;20030;-36
2021/06/18 11:02:46;;;;;;;3.45;2.80;;;;;;;22.27;54.01;93550.41;5001355;28;20116;-36
2021/06/18 11:05:14;;;;;;;3.63;3.33;;;;;;;22.16;55.20;93554.03;5007572;28;20109;-38
2021/06/18 11:07:40;;;;;;;3.80;3.50;;;;;;;22.18;54.39;93548.53;5007715;28;20060;-38
2021/06/18 11:10:06;;;;;;;4.15;3.70;;;;;;;22.17;55.30;93554.78;5006573;28;20502;-38
2021/06/18 11:12:35;;;;;;;4.97;3.97;;;;;;;22.28;55.20;93551.88;5002991;28;20057;-39
2021/06/18 11:15:06;;;;;;;4.88;4.07;;;;;;;22.44;54.69;93558.34;5007095;28;20033;-40
2021/06/18 11:17:40;;;;;;;6.47;3.50;;;;;;;22.56;55.41;93550.53;5000734;28;20053;-39
2021/06/18 11:20:32;;;;;;;4.18;3.80;;;;;;;22.63;55.91;93557.22;5006967;28;20026;-39
2021/06/18 11:23:09;;;;;;;4.18;3.35;;;;;;;22.63;55.97;93549.50;5011241;28;20029;-38
2021/06/18 11:25:39;;;;;;;3.78;3.55;;;;;;;22.52;54.85;93550.31;5007329;28;20036;-39
2021/06/18 11:28:23;;;;;;;7.40;3.20;;;;;;;22.42;54.89;93544.16;5019766;28;20030;-38
2021/06/18 11:31:01;;;;;;;4.70;4.30;;;;;;;22.37;56.31;93536.16;5010156;28;20104;-38
2021/06/18 11:33:35;;;;;;;5.10;3.90;;;;;;;22.23;57.17;93536.13;5010340;28;20072;-39